Borkenberge Airport


Codes: EDLB/
Name: Borkenberge Airport
City: Dulmen
Country: Germany
Elevation: 157 ft.
Website:

Photos at Borkenberge Airport


   Photos courtesy of SpottingLog. You can add your own sightings and photos by signing up for a free trial today.



No photos found.

Weather at Borkenberge Airport


Time (UTC)DescriptionTempratureWindCloud coverageVisibilityPressureHumidity
21-Jun-2024 12:00Light Rain21°C9 mph, SW100%10000m1011hPa79%
21-Jun-2024 15:00Light Rain21°C9 mph, W100%10000m1011hPa82%
21-Jun-2024 18:00Light Rain19°C11 mph, W92%10000m1010hPa90%
21-Jun-2024 21:00Overcast Clouds15°C11 mph, W100%10000m1012hPa94%
22-Jun-2024 00:00Overcast Clouds13°C9 mph, SW100%10000m1013hPa86%
22-Jun-2024 03:00Overcast Clouds13°C9 mph, SW100%10000m1012hPa91%
22-Jun-2024 06:00Broken Clouds15°C11 mph, SW67%10000m1013hPa77%
22-Jun-2024 09:00Few Clouds18°C13 mph, SW19%10000m1013hPa58%
22-Jun-2024 12:00Scattered Clouds19°C11 mph, W50%10000m1013hPa58%
22-Jun-2024 15:00Overcast Clouds19°C11 mph, W85%10000m1013hPa61%
22-Jun-2024 18:00Broken Clouds17°C9 mph, W80%10000m1014hPa75%
22-Jun-2024 21:00Few Clouds13°C4 mph, W23%10000m1016hPa90%
23-Jun-2024 00:00Scattered Clouds12°C4 mph, W37%10000m1017hPa92%
23-Jun-2024 03:00Scattered Clouds11°C2 mph, W42%10000m1018hPa96%
23-Jun-2024 06:00Scattered Clouds15°C4 mph, W28%10000m1019hPa79%
23-Jun-2024 09:00Broken Clouds20°C4 mph, NW51%10000m1019hPa61%
23-Jun-2024 12:00Broken Clouds20°C4 mph, N73%10000m1019hPa62%
23-Jun-2024 15:00Overcast Clouds20°C2 mph, N100%10000m1020hPa63%
23-Jun-2024 18:00Overcast Clouds20°C2 mph, N100%10000m1019hPa70%
23-Jun-2024 21:00Scattered Clouds15°C7 mph, NE31%10000m1021hPa87%
24-Jun-2024 00:00Few Clouds13°C4 mph, NE18%10000m1021hPa96%
24-Jun-2024 03:00Scattered Clouds12°C2 mph, NE43%10000m1021hPa96%
24-Jun-2024 06:00Scattered Clouds16°C4 mph, NE43%10000m1021hPa83%
24-Jun-2024 09:00Clear Sky20°C7 mph, NE4%10000m1021hPa61%
24-Jun-2024 12:00Clear Sky23°C7 mph, NE2%10000m1020hPa51%
24-Jun-2024 15:00Clear Sky24°C9 mph, NE0%10000m1019hPa50%
24-Jun-2024 18:00Clear Sky21°C7 mph, E0%10000m1018hPa69%
24-Jun-2024 21:00Clear Sky17°C7 mph, NE0%10000m1018hPa83%
25-Jun-2024 00:00Clear Sky15°C7 mph, NE0%10000m1018hPa97%
25-Jun-2024 03:00Clear Sky14°C7 mph, E7%10000m1017hPa97%
25-Jun-2024 06:00Clear Sky18°C7 mph, E5%10000m1017hPa78%
25-Jun-2024 09:00Clear Sky22°C9 mph, E0%10000m1016hPa61%
25-Jun-2024 12:00Clear Sky25°C11 mph, E0%10000m1014hPa53%
25-Jun-2024 15:00Clear Sky26°C11 mph, E0%10000m1013hPa49%
25-Jun-2024 18:00Few Clouds22°C11 mph, E16%10000m1012hPa71%
25-Jun-2024 21:00Clear Sky18°C7 mph, E2%10000m1012hPa84%
26-Jun-2024 00:00Clear Sky16°C7 mph, E1%10000m1011hPa87%
26-Jun-2024 03:00Clear Sky15°C7 mph, E2%10000m1010hPa87%
26-Jun-2024 06:00Few Clouds19°C9 mph, E12%10000m1010hPa76%
26-Jun-2024 09:00Broken Clouds21°C9 mph, E51%10000m1009hPa72%